Time;durP1;ratioP1;P1;durP2;ratioP2;P2;SDS_P1;SDS_P2;PMS_P1;PMS_P2;Temp;Humidity;BMP_temperature;BMP_pressure;BME280_temperature;BME280_humidity;BME280_pressure;Samples;Min_cycle;Max_cycle;Signal;HPM_P1;HPM_P2
2022/02/10 00:15:56;;;;;;;;;;;28.00;64.80;;;;;;5090812;28;19931;-50
2022/02/10 00:18:38;;;;;;;;;;;27.60;67.30;;;;;;5084008;28;20899;-52
2022/02/10 00:21:13;;;;;;;;;;;27.20;68.60;;;;;;5087967;28;19919;-48
2022/02/10 00:34:28;;;;;;;;;;;26.90;70.10;;;;;;5091563;28;19965;-48
2022/02/10 00:39:43;;;;;;;;;;;27.10;68.70;;;;;;5079386;28;19908;-47
2022/02/10 00:42:10;;;;;;;;;;;27.10;69.60;;;;;;5088941;28;19954;-44
2022/02/10 00:44:37;;;;;;;;;;;27.20;69.60;;;;;;5084223;28;19919;-51
2022/02/10 00:47:04;;;;;;;;;;;27.10;69.60;;;;;;5092630;28;19991;-54
2022/02/10 00:49:31;;;;;;;;;;;27.30;69.00;;;;;;5075104;28;19921;-48
2022/02/10 00:51:58;;;;;;;;;;;27.30;67.30;;;;;;5084635;28;19952;-49
2022/02/10 00:54:31;;;;;;;;;;;27.50;68.50;;;;;;5085191;28;20441;-52
2022/02/10 00:56:58;;;;;;;;;;;27.50;68.40;;;;;;5085985;28;20290;-47
2022/02/10 01:02:19;;;;;;;;;;;27.60;68.20;;;;;;5092184;28;19908;-50
2022/02/10 01:13:04;;;;;;;;;;;27.70;67.70;;;;;;5088531;28;19908;-51
2022/02/10 01:31:43;;;;;;;;;;;28.10;66.10;;;;;;5090802;28;19954;-50
2022/02/10 01:34:10;;;;;;;;;;;28.20;65.80;;;;;;5084553;28;19930;-44
2022/02/10 01:36:36;;;;;;;;;;;28.50;65.60;;;;;;5083296;28;19931;-48
2022/02/10 01:39:04;;;;;;;;;;;28.40;65.70;;;;;;5082057;28;20421;-50
2022/02/10 02:03:18;;;;;;;;;;;28.40;66.60;;;;;;5073586;28;20054;-58
2022/02/10 02:03:35;;;;;;;;;;;28.70;64.20;;;;;;5072971;28;19958;-55
2022/02/10 02:06:07;;;;;;;;;;;28.90;65.40;;;;;;5072743;28;20255;-60
2022/02/10 02:08:37;;;;;;;;;;;28.90;65.40;;;;;;5073256;28;19917;-56
2022/02/10 02:11:04;;;;;;;;;;;28.90;64.90;;;;;;5073385;28;20286;-54
2022/02/10 02:13:31;;;;;;;;;;;28.90;66.10;;;;;;5068619;28;19920;-47
2022/02/10 02:15:58;;;;;;;;;;;28.80;66.60;;;;;;5089430;28;19924;-50
2022/02/10 02:18:25;;;;;;;;;;;29.00;64.10;;;;;;5090796;28;20056;-51
2022/02/10 02:20:54;;;;;;;;;;;29.10;65.90;;;;;;5093823;28;20423;-46
2022/02/10 02:23:22;;;;;;;;;;;29.20;64.60;;;;;;5090717;28;19923;-49
2022/02/10 02:25:55;;;;;;;;;;;29.00;66.30;;;;;;5089799;28;19916;-51
2022/02/10 02:28:23;;;;;;;;;;;29.10;66.20;;;;;;5089379;28;20011;-53
2022/02/10 02:31:04;;;;;;;;;;;29.30;62.70;;;;;;5090836;28;19908;-55
2022/02/10 02:39:00;;;;;;;;;;;29.40;65.00;;;;;;5087488;28;19918;-59
2022/02/10 03:06:35;;;;;;;;;;;29.30;64.80;;;;;;5076548;28;19938;-64
2022/02/10 03:09:07;;;;;;;;;;;29.50;64.00;;;;;;5076347;28;20007;-55
2022/02/10 03:11:39;;;;;;;;;;;29.40;65.10;;;;;;5076246;28;19919;-56
2022/02/10 03:14:14;;;;;;;;;;;29.20;65.30;;;;;;5076489;28;20022;-52
2022/02/10 03:22:16;;;;;;;;;;;29.60;63.30;;;;;;5076503;28;19915;-59
2022/02/10 04:21:13;;;;;;;;;;;29.70;63.70;;;;;;5074363;28;19909;-58
2022/02/10 04:26:25;;;;;;;;;;;29.40;65.50;;;;;;5074639;28;19953;-54
2022/02/10 04:53:09;;;;;;;;;;;29.40;66.10;;;;;;5073072;28;19966;-50
2022/02/10 04:56:33;;;;;;;;;;;29.10;65.50;;;;;;5120132;27;19920;-53
2022/02/10 05:01:53;;;;;;;;;;;29.00;66.00;;;;;;5092544;28;19979;-48
2022/02/10 05:17:51;;;;;;;;;;;29.10;64.20;;;;;;5083464;28;19916;-56
2022/02/10 05:23:18;;;;;;;;;;;29.50;62.00;;;;;;5086944;28;20003;-49
2022/02/10 05:36:20;;;;;;;;;;;28.30;77.80;;;;;;5091264;28;19948;-52
2022/02/10 05:39:04;;;;;;;;;;;28.30;81.10;;;;;;5082989;28;19995;-54
2022/02/10 05:42:00;;;;;;;;;;;28.10;81.40;;;;;;5089878;28;19951;-59
2022/02/10 05:50:02;;;;;;;;;;;27.80;76.90;;;;;;5077594;28;19965;-55
2022/02/10 05:57:53;;;;;;;;;;;27.20;80.10;;;;;;5070683;28;19923;-53
2022/02/10 07:10:39;;;;;;;;;;;28.10;68.10;;;;;;5076663;28;20377;-55
2022/02/10 08:56:08;;;;;;;;;;;27.60;82.70;;;;;;5094714;28;19931;-57
2022/02/10 09:01:36;;;;;;;;;;;27.60;81.90;;;;;;5094893;28;19916;-60
2022/02/10 09:23:35;;;;;;;;;;;27.50;83.40;;;;;;5089999;28;19958;-53
2022/02/10 09:47:32;;;;;;;;;;;27.40;86.40;;;;;;5088945;28;19973;-53
2022/02/10 09:51:40;;;;;;;;;;;27.10;85.30;;;;;;5089477;28;19981;-54
2022/02/10 10:01:14;;;;;;;;;;;27.00;85.10;;;;;;5092981;28;19918;-51
2022/02/10 10:03:51;;;;;;;;;;;27.00;85.60;;;;;;5093296;28;19916;-48
2022/02/10 10:06:26;;;;;;;;;;;27.00;85.60;;;;;;5092340;28;19934;-52
2022/02/10 10:09:18;;;;;;;;;;;27.00;85.60;;;;;;5085226;28;20294;-49
2022/02/10 10:12:42;;;;;;;;;;;27.00;86.00;;;;;;5093194;28;19953;-49
2022/02/10 10:15:22;;;;;;;;;;;26.90;86.20;;;;;;5088783;28;19924;-51
2022/02/10 10:24:03;;;;;;;;;;;26.80;86.20;;;;;;5041119;28;20385;-53
2022/02/10 10:54:32;;;;;;;;;;;26.50;87.20;;;;;;5083180;28;19929;-52
2022/02/10 10:57:05;;;;;;;;;;;26.40;87.10;;;;;;5082062;28;19999;-54
2022/02/10 11:00:05;;;;;;;;;;;26.30;87.10;;;;;;5070775;28;20079;-51
2022/02/10 11:41:50;;;;;;;;;;;25.90;88.30;;;;;;5072887;28;19915;-57
2022/02/10 11:44:38;;;;;;;;;;;25.90;88.50;;;;;;5075716;28;19909;-59
2022/02/10 11:47:41;;;;;;;;;;;25.90;88.40;;;;;;5075322;28;19948;-53
2022/02/10 14:15:27;;;;;;;;;;;24.90;90.60;;;;;;5091377;28;20420;-53
2022/02/10 14:18:09;;;;;;;;;;;24.90;90.50;;;;;;5077787;28;19917;-55
2022/02/10 14:20:53;;;;;;;;;;;24.90;90.50;;;;;;5067659;28;20361;-53
2022/02/10 14:25:40;;;;;;;;;;;24.80;90.50;;;;;;5087713;28;19908;-54
2022/02/10 14:26:26;;;;;;;;;;;24.80;90.50;;;;;;5089220;28;19962;-52
2022/02/10 14:28:53;;;;;;;;;;;24.80;90.40;;;;;;5077120;28;19916;-50
2022/02/10 14:31:20;;;;;;;;;;;24.80;90.50;;;;;;5080421;28;19908;-57
2022/02/10 14:33:49;;;;;;;;;;;24.80;90.40;;;;;;5079301;28;19952;-53
2022/02/10 14:36:33;;;;;;;;;;;24.80;90.50;;;;;;5091628;28;19909;-52
2022/02/10 14:42:14;;;;;;;;;;;24.70;90.40;;;;;;5086203;28;19918;-53
2022/02/10 15:13:04;;;;;;;;;;;24.50;90.70;;;;;;5093608;28;19915;-54
2022/02/10 16:10:54;;;;;;;;;;;24.40;90.90;;;;;;5056158;28;20015;-53
2022/02/10 16:18:43;;;;;;;;;;;24.40;90.90;;;;;;5095965;28;19915;-54
2022/02/10 16:21:11;;;;;;;;;;;24.40;91.00;;;;;;5095000;28;19970;-49
2022/02/10 16:23:38;;;;;;;;;;;24.30;91.00;;;;;;5095344;28;19965;-53
2022/02/10 16:26:14;;;;;;;;;;;24.30;91.10;;;;;;5095138;28;19912;-49
2022/02/10 16:28:42;;;;;;;;;;;24.30;91.00;;;;;;5095208;28;19916;-54
2022/02/10 16:31:11;;;;;;;;;;;24.30;91.00;;;;;;5094914;28;19912;-58
2022/02/10 16:33:38;;;;;;;;;;;24.30;91.00;;;;;;5095168;28;19912;-52
2022/02/10 16:36:05;;;;;;;;;;;24.30;91.00;;;;;;5095064;28;20262;-57
2022/02/10 16:38:32;;;;;;;;;;;24.30;91.00;;;;;;5095055;28;20363;-56
2022/02/10 16:40:59;;;;;;;;;;;24.30;91.10;;;;;;5095147;28;20274;-53
2022/02/10 16:43:26;;;;;;;;;;;24.30;91.00;;;;;;5094611;28;19998;-50
2022/02/10 16:45:56;;;;;;;;;;;24.30;91.00;;;;;;5094313;28;19927;-57
2022/02/10 16:48:24;;;;;;;;;;;24.30;91.10;;;;;;5094277;28;19915;-51
2022/02/10 16:50:50;;;;;;;;;;;24.30;91.00;;;;;;5094873;28;19958;-56
2022/02/10 16:53:25;;;;;;;;;;;24.30;91.10;;;;;;5094690;28;20269;-53
2022/02/10 16:56:02;;;;;;;;;;;24.20;91.00;;;;;;5094897;28;19912;-56
2022/02/10 16:58:38;;;;;;;;;;;24.20;91.00;;;;;;5094639;28;19916;-56
2022/02/10 17:03:51;;;;;;;;;;;24.20;91.30;;;;;;5094757;28;19908;-50
2022/02/10 17:27:44;;;;;;;;;;;24.10;91.10;;;;;;5093728;28;19938;-55
2022/02/10 17:30:46;;;;;;;;;;;24.00;91.10;;;;;;5092885;28;19961;-56
2022/02/10 17:35:55;;;;;;;;;;;24.10;91.20;;;;;;5093878;28;19955;-56
2022/02/10 17:54:22;;;;;;;;;;;24.00;91.20;;;;;;5094047;28;19940;-54
2022/02/10 17:56:49;;;;;;;;;;;23.90;91.10;;;;;;5093519;28;19915;-58
2022/02/10 17:59:16;;;;;;;;;;;23.90;91.20;;;;;;5092038;28;19947;-53
2022/02/10 18:01:44;;;;;;;;;;;23.90;91.10;;;;;;5092323;28;19909;-55
2022/02/10 18:04:12;;;;;;;;;;;23.90;91.20;;;;;;5093615;28;19908;-57
2022/02/10 18:06:42;;;;;;;;;;;23.90;91.20;;;;;;5093511;28;20003;-55
2022/02/10 18:14:28;;;;;;;;;;;23.90;91.10;;;;;;5093770;28;19930;-51
2022/02/10 18:17:00;;;;;;;;;;;23.90;91.10;;;;;;5093560;28;20267;-49
2022/02/10 18:19:32;;;;;;;;;;;23.90;91.10;;;;;;5093219;28;19909;-52
2022/02/10 19:09:38;;;;;;;;;;;23.80;91.00;;;;;;5096044;28;19981;-55
2022/02/10 19:12:14;;;;;;;;;;;23.80;90.90;;;;;;5096491;28;19995;-55
2022/02/10 19:14:44;;;;;;;;;;;23.80;90.90;;;;;;5096168;28;19920;-50
2022/02/10 19:17:11;;;;;;;;;;;23.80;90.90;;;;;;5096881;28;20011;-51
2022/02/10 19:19:37;;;;;;;;;;;23.80;90.90;;;;;;5096972;28;19919;-55
2022/02/10 19:22:04;;;;;;;;;;;23.80;90.90;;;;;;5095386;28;20282;-52
2022/02/10 19:24:31;;;;;;;;;;;23.80;90.90;;;;;;5096234;28;19908;-51
2022/02/10 19:26:57;;;;;;;;;;;23.80;90.90;;;;;;5096352;28;19909;-52
2022/02/10 19:29:25;;;;;;;;;;;23.80;90.90;;;;;;5096690;28;19920;-54
2022/02/10 19:31:53;;;;;;;;;;;23.80;90.80;;;;;;5099279;28;19984;-50
2022/02/10 19:34:20;;;;;;;;;;;23.70;90.80;;;;;;5116444;28;20266;-54
2022/02/10 19:36:49;;;;;;;;;;;23.70;90.80;;;;;;5105554;28;19908;-48
2022/02/10 19:39:20;;;;;;;;;;;23.70;90.80;;;;;;5096255;28;19915;-55
2022/02/10 19:41:48;;;;;;;;;;;23.70;90.90;;;;;;5094906;28;19908;-50
2022/02/10 19:44:15;;;;;;;;;;;23.70;90.80;;;;;;5096002;28;19953;-55
2022/02/10 19:46:43;;;;;;;;;;;23.70;90.80;;;;;;5095475;28;20331;-57
2022/02/10 19:49:27;;;;;;;;;;;23.70;90.80;;;;;;5095988;28;19918;-59
2022/02/10 19:51:54;;;;;;;;;;;23.70;90.80;;;;;;5095819;28;20286;-51
2022/02/10 19:54:27;;;;;;;;;;;23.70;90.70;;;;;;5095662;28;19999;-57
2022/02/10 19:56:56;;;;;;;;;;;23.70;90.80;;;;;;5093734;28;20038;-55
2022/02/10 19:59:26;;;;;;;;;;;23.70;90.80;;;;;;5094060;28;19951;-52
2022/02/10 20:01:53;;;;;;;;;;;23.70;90.80;;;;;;5095296;28;19954;-55
2022/02/10 20:04:21;;;;;;;;;;;23.70;90.80;;;;;;5094973;28;19966;-52
2022/02/10 20:06:48;;;;;;;;;;;23.70;90.80;;;;;;5095056;28;19912;-55
2022/02/10 20:09:15;;;;;;;;;;;23.70;91.00;;;;;;5095370;28;19927;-55
2022/02/10 20:11:41;;;;;;;;;;;23.70;90.80;;;;;;5095526;28;19919;-50
2022/02/10 20:14:08;;;;;;;;;;;23.70;90.70;;;;;;5094842;28;19991;-56
2022/02/10 20:16:35;;;;;;;;;;;23.70;90.70;;;;;;5095137;28;19961;-51
2022/02/10 20:19:05;;;;;;;;;;;23.70;90.70;;;;;;5095435;28;19908;-54
2022/02/10 20:21:31;;;;;;;;;;;23.70;90.70;;;;;;5095428;28;19916;-53
2022/02/10 20:23:59;;;;;;;;;;;23.70;90.70;;;;;;5095203;28;19908;-56
2022/02/10 20:26:25;;;;;;;;;;;23.70;90.70;;;;;;5095272;28;20023;-59
2022/02/10 20:28:52;;;;;;;;;;;23.70;90.70;;;;;;5094552;28;20285;-56
2022/02/10 20:31:19;;;;;;;;;;;23.70;90.70;;;;;;5094690;28;20007;-52
2022/02/10 20:33:46;;;;;;;;;;;23.70;90.90;;;;;;5094930;28;20077;-53
2022/02/10 20:36:13;;;;;;;;;;;23.70;90.70;;;;;;5093122;28;20023;-58
2022/02/10 20:38:44;;;;;;;;;;;23.70;90.70;;;;;;5093777;28;19912;-56
2022/02/10 20:41:14;;;;;;;;;;;23.70;90.70;;;;;;5094409;28;19937;-52
2022/02/10 20:43:42;;;;;;;;;;;23.80;90.70;;;;;;5094286;28;19908;-52
2022/02/10 20:46:12;;;;;;;;;;;23.70;90.70;;;;;;5094354;28;19961;-55
2022/02/10 20:48:40;;;;;;;;;;;23.80;90.70;;;;;;5094288;28;19965;-57
2022/02/10 20:51:09;;;;;;;;;;;23.80;90.70;;;;;;5094007;28;19934;-55
2022/02/10 20:53:38;;;;;;;;;;;23.80;90.70;;;;;;5093929;28;19939;-57
2022/02/10 20:56:05;;;;;;;;;;;23.80;90.70;;;;;;5094796;28;20248;-50
2022/02/10 20:58:32;;;;;;;;;;;23.90;90.70;;;;;;5092409;28;19908;-55
2022/02/10 21:01:01;;;;;;;;;;;23.80;90.60;;;;;;5092842;28;19951;-57
2022/02/10 21:03:30;;;;;;;;;;;23.80;90.60;;;;;;5092098;28;19915;-55
2022/02/10 21:06:06;;;;;;;;;;;23.90;90.60;;;;;;5093971;28;19908;-54
2022/02/10 21:11:14;;;;;;;;;;;23.90;90.60;;;;;;5094081;28;19912;-54
2022/02/10 21:13:41;;;;;;;;;;;23.90;90.50;;;;;;5094252;28;20244;-50
2022/02/10 21:16:07;;;;;;;;;;;23.90;90.50;;;;;;5093611;28;19920;-57
2022/02/10 21:18:35;;;;;;;;;;;24.00;90.60;;;;;;5092057;28;20006;-51
2022/02/10 21:21:06;;;;;;;;;;;24.00;90.60;;;;;;5093795;28;19995;-57
2022/02/10 21:23:38;;;;;;;;;;;24.00;90.50;;;;;;5094291;28;20041;-57
2022/02/10 21:26:06;;;;;;;;;;;24.10;90.70;;;;;;5093645;28;19910;-53
2022/02/10 21:28:36;;;;;;;;;;;24.10;90.50;;;;;;5093063;28;20318;-57
2022/02/10 21:31:06;;;;;;;;;;;24.10;90.50;;;;;;5093899;28;19912;-53
2022/02/10 21:36:32;;;;;;;;;;;24.10;90.50;;;;;;5093663;28;19908;-51
2022/02/10 21:39:06;;;;;;;;;;;24.20;90.50;;;;;;5093564;28;19961;-56
2022/02/10 22:19:38;;;;;;;;;;;24.80;90.10;;;;;;5086595;28;19954;-54
2022/02/10 22:22:12;;;;;;;;;;;24.80;90.00;;;;;;5085466;28;19908;-47
2022/02/10 22:24:39;;;;;;;;;;;24.90;90.00;;;;;;5088453;28;19932;-52
2022/02/10 22:27:06;;;;;;;;;;;24.90;90.00;;;;;;5090044;28;20003;-56
2022/02/10 22:29:39;;;;;;;;;;;24.90;89.70;;;;;;5088198;28;19919;-55
2022/02/10 22:32:26;;;;;;;;;;;25.00;90.10;;;;;;5082051;28;19916;-54
2022/02/10 22:34:54;;;;;;;;;;;25.00;90.10;;;;;;5087627;28;19915;-49
2022/02/10 22:37:21;;;;;;;;;;;25.00;90.30;;;;;;5087204;28;19915;-57
2022/02/10 22:39:51;;;;;;;;;;;24.90;90.10;;;;;;5088056;28;20377;-55
2022/02/10 22:42:22;;;;;;;;;;;25.00;90.00;;;;;;5083558;28;20746;-50
2022/02/10 22:44:49;;;;;;;;;;;25.00;90.00;;;;;;5092412;28;19912;-59
2022/02/10 22:47:15;;;;;;;;;;;24.90;90.00;;;;;;5092862;28;19934;-55
2022/02/10 22:49:42;;;;;;;;;;;24.90;90.30;;;;;;5092837;28;19916;-57
2022/02/10 22:52:13;;;;;;;;;;;24.90;90.20;;;;;;5092462;28;19939;-54
2022/02/10 22:54:40;;;;;;;;;;;24.90;90.30;;;;;;5074383;28;19908;-53
2022/02/10 22:57:06;;;;;;;;;;;24.90;90.40;;;;;;5092390;28;19908;-53
2022/02/10 22:59:33;;;;;;;;;;;24.90;90.60;;;;;;5092707;28;20270;-53
2022/02/10 23:02:00;;;;;;;;;;;24.90;90.70;;;;;;5092412;28;19921;-58
2022/02/10 23:04:28;;;;;;;;;;;24.90;91.10;;;;;;5091336;28;20003;-53
2022/02/10 23:06:58;;;;;;;;;;;24.90;91.00;;;;;;5090872;28;20007;-53
2022/02/10 23:09:31;;;;;;;;;;;24.90;90.70;;;;;;5090933;28;20027;-55
2022/02/10 23:11:59;;;;;;;;;;;24.90;90.90;;;;;;5090951;28;19940;-53
2022/02/10 23:14:26;;;;;;;;;;;24.90;90.70;;;;;;5091185;28;20290;-58
2022/02/10 23:16:53;;;;;;;;;;;25.00;90.90;;;;;;5115607;28;20427;-53
2022/02/10 23:19:21;;;;;;;;;;;25.00;90.90;;;;;;5115951;28;19915;-52
2022/02/10 23:21:47;;;;;;;;;;;25.00;91.10;;;;;;5116499;28;19908;-52
2022/02/10 23:24:14;;;;;;;;;;;25.00;91.30;;;;;;5116031;28;19912;-56
2022/02/10 23:26:41;;;;;;;;;;;25.00;90.50;;;;;;5116896;28;19908;-52
2022/02/10 23:29:08;;;;;;;;;;;25.00;90.70;;;;;;5116630;28;20016;-58
2022/02/10 23:31:35;;;;;;;;;;;25.00;90.80;;;;;;5116612;28;19943;-60
2022/02/10 23:34:03;;;;;;;;;;;25.00;90.70;;;;;;5116333;28;20278;-59
2022/02/10 23:39:24;;;;;;;;;;;25.00;90.80;;;;;;5117502;28;19914;-56
2022/02/10 23:44:42;;;;;;;;;;;25.00;90.60;;;;;;5116390;28;20345;-58
2022/02/10 23:47:07;;;;;;;;;;;25.00;90.90;;;;;;5116142;28;20350;-54
2022/02/10 23:49:36;;;;;;;;;;;25.00;90.90;;;;;;5116460;28;19916;-58
2022/02/10 23:52:05;;;;;;;;;;;25.00;90.80;;;;;;5116476;28;20417;-55
2022/02/10 23:54:37;;;;;;;;;;;25.00;91.00;;;;;;5116166;28;20386;-52
2022/02/10 23:57:10;;;;;;;;;;;24.90;90.80;;;;;;5116297;28;19908;-56
